The Mercy Boys — 9HA2770 — position and weather

sailwx.info

Track history (hours):
 
Tides and Currents Weather Stations Pressure Air Temp Water Temp Dewpoint Dewpoint Depression Visibility Wind Speed Wind Dir Waves Ship Positions

The Mercy Boys

Last reported at 2017-Nov-02 16:04 UTC. Time now 2017-Nov-22 09:15 UTC.
Position N 35°54' E 014°32'.
Warning: this ship's position is 19 days out of date.

Length 49 m; draft 3.5 m.

Type: Pleasure craft. MMSI: 215607000.

Date/timePositionNaut miles runAvg speedWind from/ knotsBaromVisibWave heightAir tempDewpointWater temp
2017-Nov-02 16:04N 35°54' E 014°32'0 4.5
2017-Nov-02 15:59N 35°55' E 014°32'0 0.6
2017-Nov-02 15:30N 35°55' E 014°32'0 0.8
2017-Nov-02 14:59N 35°55' E 014°33'43211.7
2017-Nov-01 01:59N 37°46' E 023°15'611.8
2017-Nov-01 01:26N 37°40' E 023°18'612.1
2017-Nov-01 00:58N 37°40' E 023°25'6512.2
2017-Oct-31 19:40N 37°23' E 024°44'212.1
2017-Oct-31 19:30N 37°22' E 024°46'612.1
2017-Oct-31 19:00N 37°20' E 024°53'1313.2
2017-Oct-31 18:00N 37°21' E 025°10'612.8
2017-Oct-31 17:30N 37°22' E 025°18'612.6
2017-Oct-31 17:00N 37°24' E 025°25'  
Track history (hours):
 
Tides and Currents Weather Stations Pressure Air Temp Water Temp Dewpoint Dewpoint Depression Visibility Wind Speed Wind Dir Waves Ship Positions

The Mercy Boys

Last reported at 2017-Nov-02 16:04 UTC. Time now 2017-Nov-22 09:15 UTC.
Position N 35°54' E 014°32'.
Warning: this ship's position is 19 days out of date.

Length 49 m; draft 3.5 m.

Type: Pleasure craft. MMSI: 215607000.

Date/timePositionNaut miles runAvg speedWind from/ knotsBaromVisibWave heightAir tempDewpointWater temp
2017-Nov-02 16:04N 35°54' E 014°32'0 4.5
2017-Nov-02 15:59N 35°55' E 014°32'0 0.6
2017-Nov-02 15:30N 35°55' E 014°32'0 0.8
2017-Nov-02 14:59N 35°55' E 014°33'43211.7
2017-Nov-01 01:59N 37°46' E 023°15'611.8
2017-Nov-01 01:26N 37°40' E 023°18'612.1
2017-Nov-01 00:58N 37°40' E 023°25'6512.2
2017-Oct-31 19:40N 37°23' E 024°44'212.1
2017-Oct-31 19:30N 37°22' E 024°46'612.1
2017-Oct-31 19:00N 37°20' E 024°53'1313.2
2017-Oct-31 18:00N 37°21' E 025°10'612.8
2017-Oct-31 17:30N 37°22' E 025°18'612.6
2017-Oct-31 17:00N 37°24' E 025°25'  

Dump ship's entire track history